sensor_id;sensor_type;location;lat;lon;timestamp;temperature;humidity
25718;DHT22;13574;52.040;5.692;2022-08-07T00:01:07;20.50;89.10
25718;DHT22;13574;52.040;5.692;2022-08-07T00:03:32;20.40;89.60
25718;DHT22;13574;52.040;5.692;2022-08-07T00:05:58;20.60;89.10
25718;DHT22;13574;52.040;5.692;2022-08-07T00:08:24;20.40;89.20
25718;DHT22;13574;52.040;5.692;2022-08-07T00:10:50;20.30;89.70
25718;DHT22;13574;52.040;5.692;2022-08-07T00:13:18;20.30;89.90
25718;DHT22;13574;52.040;5.692;2022-08-07T00:15:44;20.40;89.40
25718;DHT22;13574;52.040;5.692;2022-08-07T00:18:10;20.30;90.00
25718;DHT22;13574;52.040;5.692;2022-08-07T00:20:37;20.40;89.90
25718;DHT22;13574;52.040;5.692;2022-08-07T00:23:03;20.40;89.80
25718;DHT22;13574;52.040;5.692;2022-08-07T00:25:31;20.30;89.80
25718;DHT22;13574;52.040;5.692;2022-08-07T00:27:57;20.30;89.60
25718;DHT22;13574;52.040;5.692;2022-08-07T00:30:23;20.40;89.70
25718;DHT22;13574;52.040;5.692;2022-08-07T00:32:49;20.30;90.00
25718;DHT22;13574;52.040;5.692;2022-08-07T00:35:17;20.30;89.90
25718;DHT22;13574;52.040;5.692;2022-08-07T00:37:43;20.30;89.50
25718;DHT22;13574;52.040;5.692;2022-08-07T00:40:09;20.20;89.90
25718;DHT22;13574;52.040;5.692;2022-08-07T00:42:35;20.10;89.60
25718;DHT22;13574;52.040;5.692;2022-08-07T00:45:00;19.90;90.40
25718;DHT22;13574;52.040;5.692;2022-08-07T00:47:26;19.90;90.40
25718;DHT22;13574;52.040;5.692;2022-08-07T00:49:52;19.80;90.40
25718;DHT22;13574;52.040;5.692;2022-08-07T00:52:17;19.90;90.40
25718;DHT22;13574;52.040;5.692;2022-08-07T00:54:43;20.00;90.20
25718;DHT22;13574;52.040;5.692;2022-08-07T00:57:09;20.00;90.50
25718;DHT22;13574;52.040;5.692;2022-08-07T00:59:36;20.10;90.20
25718;DHT22;13574;52.040;5.692;2022-08-07T01:02:04;20.10;90.10
25718;DHT22;13574;52.040;5.692;2022-08-07T01:04:30;19.90;90.10
25718;DHT22;13574;52.040;5.692;2022-08-07T01:06:55;19.80;90.40
25718;DHT22;13574;52.040;5.692;2022-08-07T01:09:21;19.80;90.50
25718;DHT22;13574;52.040;5.692;2022-08-07T01:11:50;19.60;90.70
25718;DHT22;13574;52.040;5.692;2022-08-07T01:14:16;19.60;90.80
25718;DHT22;13574;52.040;5.692;2022-08-07T01:16:42;19.50;90.80
25718;DHT22;13574;52.040;5.692;2022-08-07T01:19:08;19.40;90.90
25718;DHT22;13574;52.040;5.692;2022-08-07T01:21:34;19.40;90.90
25718;DHT22;13574;52.040;5.692;2022-08-07T01:24:00;19.30;91.40
25718;DHT22;13574;52.040;5.692;2022-08-07T01:26:27;19.30;91.30
25718;DHT22;13574;52.040;5.692;2022-08-07T01:28:53;19.40;91.20
25718;DHT22;13574;52.040;5.692;2022-08-07T01:31:20;19.30;91.40
25718;DHT22;13574;52.040;5.692;2022-08-07T01:33:46;19.30;91.20
25718;DHT22;13574;52.040;5.692;2022-08-07T01:36:12;19.30;91.20
25718;DHT22;13574;52.040;5.692;2022-08-07T01:38:38;19.30;91.20
25718;DHT22;13574;52.040;5.692;2022-08-07T01:41:05;19.10;91.50
25718;DHT22;13574;52.040;5.692;2022-08-07T01:43:32;19.10;91.50
25718;DHT22;13574;52.040;5.692;2022-08-07T01:45:58;19.10;91.50
25718;DHT22;13574;52.040;5.692;2022-08-07T01:48:25;19.10;91.50
25718;DHT22;13574;52.040;5.692;2022-08-07T01:50:54;18.90;91.80
25718;DHT22;13574;52.040;5.692;2022-08-07T01:53:21;18.90;91.70
25718;DHT22;13574;52.040;5.692;2022-08-07T01:55:55;18.80;92.00
25718;DHT22;13574;52.040;5.692;2022-08-07T01:58:22;18.90;91.90
25718;DHT22;13574;52.040;5.692;2022-08-07T02:00:52;18.80;92.00
25718;DHT22;13574;52.040;5.692;2022-08-07T02:03:20;18.80;92.10
25718;DHT22;13574;52.040;5.692;2022-08-07T02:05:54;18.70;92.30
25718;DHT22;13574;52.040;5.692;2022-08-07T02:08:23;18.70;92.30
25718;DHT22;13574;52.040;5.692;2022-08-07T02:10:50;18.70;92.30
25718;DHT22;13574;52.040;5.692;2022-08-07T02:13:21;18.70;92.30
25718;DHT22;13574;52.040;5.692;2022-08-07T02:15:49;18.70;92.20
25718;DHT22;13574;52.040;5.692;2022-08-07T02:18:17;18.80;92.20
25718;DHT22;13574;52.040;5.692;2022-08-07T02:20:44;18.80;92.30
25718;DHT22;13574;52.040;5.692;2022-08-07T02:23:12;18.90;92.00
25718;DHT22;13574;52.040;5.692;2022-08-07T02:25:40;18.80;92.20
25718;DHT22;13574;52.040;5.692;2022-08-07T02:28:06;18.70;92.10
25718;DHT22;13574;52.040;5.692;2022-08-07T02:30:34;18.60;92.30
25718;DHT22;13574;52.040;5.692;2022-08-07T02:33:01;18.60;92.40
25718;DHT22;13574;52.040;5.692;2022-08-07T02:35:28;18.50;92.70
25718;DHT22;13574;52.040;5.692;2022-08-07T02:37:57;18.40;92.90
25718;DHT22;13574;52.040;5.692;2022-08-07T02:40:23;18.40;92.70
25718;DHT22;13574;52.040;5.692;2022-08-07T02:42:50;18.50;92.50
25718;DHT22;13574;52.040;5.692;2022-08-07T02:45:17;18.40;92.80
25718;DHT22;13574;52.040;5.692;2022-08-07T02:47:44;18.40;92.90
25718;DHT22;13574;52.040;5.692;2022-08-07T02:50:10;18.50;92.70
25718;DHT22;13574;52.040;5.692;2022-08-07T02:52:45;18.60;92.60
25718;DHT22;13574;52.040;5.692;2022-08-07T02:55:20;18.50;92.60
25718;DHT22;13574;52.040;5.692;2022-08-07T02:57:48;18.60;92.70
25718;DHT22;13574;52.040;5.692;2022-08-07T03:00:15;18.60;92.70
25718;DHT22;13574;52.040;5.692;2022-08-07T03:02:43;18.60;92.70
25718;DHT22;13574;52.040;5.692;2022-08-07T03:05:10;18.60;92.30
25718;DHT22;13574;52.040;5.692;2022-08-07T03:07:37;18.50;92.60
25718;DHT22;13574;52.040;5.692;2022-08-07T03:10:04;18.60;92.60
25718;DHT22;13574;52.040;5.692;2022-08-07T03:12:31;18.50;92.60
25718;DHT22;13574;52.040;5.692;2022-08-07T03:14:58;18.50;92.50
25718;DHT22;13574;52.040;5.692;2022-08-07T03:17:24;18.50;92.60
25718;DHT22;13574;52.040;5.692;2022-08-07T03:19:50;18.60;92.50
25718;DHT22;13574;52.040;5.692;2022-08-07T03:22:16;18.60;92.50
25718;DHT22;13574;52.040;5.692;2022-08-07T03:24:44;18.50;92.60
25718;DHT22;13574;52.040;5.692;2022-08-07T03:27:10;18.50;92.30
25718;DHT22;13574;52.040;5.692;2022-08-07T03:29:41;18.40;92.50
25718;DHT22;13574;52.040;5.692;2022-08-07T03:32:10;18.50;92.60
25718;DHT22;13574;52.040;5.692;2022-08-07T03:34:37;18.50;92.60
25718;DHT22;13574;52.040;5.692;2022-08-07T03:37:05;18.40;92.60
25718;DHT22;13574;52.040;5.692;2022-08-07T03:39:33;18.50;92.50
25718;DHT22;13574;52.040;5.692;2022-08-07T03:42:01;18.40;92.60
25718;DHT22;13574;52.040;5.692;2022-08-07T03:44:27;18.60;92.60
25718;DHT22;13574;52.040;5.692;2022-08-07T03:46:54;18.60;92.50
25718;DHT22;13574;52.040;5.692;2022-08-07T03:49:19;18.50;92.50
25718;DHT22;13574;52.040;5.692;2022-08-07T03:51:46;18.60;92.50
25718;DHT22;13574;52.040;5.692;2022-08-07T03:54:13;18.60;92.30
25718;DHT22;13574;52.040;5.692;2022-08-07T03:56:39;18.60;92.10
25718;DHT22;13574;52.040;5.692;2022-08-07T03:59:06;18.50;92.50
25718;DHT22;13574;52.040;5.692;2022-08-07T04:01:33;18.50;92.40
25718;DHT22;13574;52.040;5.692;2022-08-07T04:03:59;18.40;92.70
25718;DHT22;13574;52.040;5.692;2022-08-07T04:06:24;18.50;92.40
25718;DHT22;13574;52.040;5.692;2022-08-07T04:08:51;18.30;92.60
25718;DHT22;13574;52.040;5.692;2022-08-07T04:11:17;18.20;92.70
25718;DHT22;13574;52.040;5.692;2022-08-07T04:13:44;18.20;92.70
25718;DHT22;13574;52.040;5.692;2022-08-07T04:16:11;18.10;92.70
25718;DHT22;13574;52.040;5.692;2022-08-07T04:18:37;18.20;92.80
25718;DHT22;13574;52.040;5.692;2022-08-07T04:21:03;18.00;93.00
25718;DHT22;13574;52.040;5.692;2022-08-07T04:23:30;18.10;93.00
25718;DHT22;13574;52.040;5.692;2022-08-07T04:25:56;18.20;92.90
25718;DHT22;13574;52.040;5.692;2022-08-07T04:28:21;18.10;92.90
25718;DHT22;13574;52.040;5.692;2022-08-07T04:30:48;18.00;93.10
25718;DHT22;13574;52.040;5.692;2022-08-07T04:33:14;18.00;93.40
25718;DHT22;13574;52.040;5.692;2022-08-07T04:35:44;17.80;93.20
25718;DHT22;13574;52.040;5.692;2022-08-07T04:38:11;17.80;93.30
25718;DHT22;13574;52.040;5.692;2022-08-07T04:40:44;17.80;93.30
25718;DHT22;13574;52.040;5.692;2022-08-07T04:43:10;17.60;93.50
25718;DHT22;13574;52.040;5.692;2022-08-07T04:45:52;17.60;93.50
25718;DHT22;13574;52.040;5.692;2022-08-07T04:54:11;17.60;93.80
25718;DHT22;13574;52.040;5.692;2022-08-07T04:56:48;17.70;93.80
25718;DHT22;13574;52.040;5.692;2022-08-07T05:02:28;17.80;93.60
25718;DHT22;13574;52.040;5.692;2022-08-07T05:05:31;17.80;93.50
25718;DHT22;13574;52.040;5.692;2022-08-07T05:07:52;17.70;93.90
25718;DHT22;13574;52.040;5.692;2022-08-07T05:10:30;17.60;94.00
25718;DHT22;13574;52.040;5.692;2022-08-07T05:13:18;17.80;93.80
25718;DHT22;13574;52.040;5.692;2022-08-07T05:15:49;17.90;93.60
25718;DHT22;13574;52.040;5.692;2022-08-07T05:18:28;18.00;93.50
25718;DHT22;13574;52.040;5.692;2022-08-07T05:21:01;17.90;93.50
25718;DHT22;13574;52.040;5.692;2022-08-07T05:23:30;18.00;93.50
25718;DHT22;13574;52.040;5.692;2022-08-07T05:25:57;17.80;93.90
25718;DHT22;13574;52.040;5.692;2022-08-07T05:28:25;17.90;93.80
25718;DHT22;13574;52.040;5.692;2022-08-07T05:30:52;18.10;93.70
25718;DHT22;13574;52.040;5.692;2022-08-07T05:33:19;18.10;93.60
25718;DHT22;13574;52.040;5.692;2022-08-07T05:35:46;18.30;93.50
25718;DHT22;13574;52.040;5.692;2022-08-07T05:38:12;18.50;93.40
25718;DHT22;13574;52.040;5.692;2022-08-07T05:40:38;18.50;93.10
25718;DHT22;13574;52.040;5.692;2022-08-07T05:43:04;18.50;93.40
25718;DHT22;13574;52.040;5.692;2022-08-07T05:45:30;18.70;93.20
25718;DHT22;13574;52.040;5.692;2022-08-07T05:48:01;18.60;93.20
25718;DHT22;13574;52.040;5.692;2022-08-07T05:50:29;18.50;93.30
25718;DHT22;13574;52.040;5.692;2022-08-07T05:52:56;18.80;93.20
25718;DHT22;13574;52.040;5.692;2022-08-07T05:55:22;18.80;93.20
25718;DHT22;13574;52.040;5.692;2022-08-07T05:57:49;19.00;93.20
25718;DHT22;13574;52.040;5.692;2022-08-07T06:00:16;18.80;93.30
25718;DHT22;13574;52.040;5.692;2022-08-07T06:02:45;18.90;93.20
25718;DHT22;13574;52.040;5.692;2022-08-07T06:05:13;19.00;93.30
25718;DHT22;13574;52.040;5.692;2022-08-07T06:07:39;19.10;93.40
25718;DHT22;13574;52.040;5.692;2022-08-07T06:10:08;19.20;93.50
25718;DHT22;13574;52.040;5.692;2022-08-07T06:12:34;19.40;93.20
25718;DHT22;13574;52.040;5.692;2022-08-07T06:15:00;19.40;93.00
25718;DHT22;13574;52.040;5.692;2022-08-07T06:17:26;19.60;92.90
25718;DHT22;13574;52.040;5.692;2022-08-07T06:19:52;19.60;92.90
25718;DHT22;13574;52.040;5.692;2022-08-07T06:22:19;19.50;93.00
25718;DHT22;13574;52.040;5.692;2022-08-07T06:24:45;19.80;92.90
25718;DHT22;13574;52.040;5.692;2022-08-07T06:27:22;20.00;92.70
25718;DHT22;13574;52.040;5.692;2022-08-07T06:29:48;20.10;92.50
25718;DHT22;13574;52.040;5.692;2022-08-07T06:32:13;20.20;92.20
25718;DHT22;13574;52.040;5.692;2022-08-07T06:34:39;20.00;92.20
25718;DHT22;13574;52.040;5.692;2022-08-07T06:37:05;20.10;92.30
25718;DHT22;13574;52.040;5.692;2022-08-07T06:39:30;20.30;92.20
25718;DHT22;13574;52.040;5.692;2022-08-07T06:42:18;20.60;92.00
25718;DHT22;13574;52.040;5.692;2022-08-07T06:44:46;20.40;91.90
25718;DHT22;13574;52.040;5.692;2022-08-07T06:47:13;20.80;91.70
25718;DHT22;13574;52.040;5.692;2022-08-07T06:49:40;20.80;91.50
25718;DHT22;13574;52.040;5.692;2022-08-07T06:52:07;21.10;91.50
25718;DHT22;13574;52.040;5.692;2022-08-07T06:54:35;21.00;90.70
25718;DHT22;13574;52.040;5.692;2022-08-07T06:57:02;20.80;91.10
25718;DHT22;13574;52.040;5.692;2022-08-07T06:59:34;20.90;91.10
25718;DHT22;13574;52.040;5.692;2022-08-07T07:02:01;21.10;91.10
25718;DHT22;13574;52.040;5.692;2022-08-07T07:04:28;21.20;90.70
25718;DHT22;13574;52.040;5.692;2022-08-07T07:06:56;21.30;90.70
25718;DHT22;13574;52.040;5.692;2022-08-07T07:09:26;21.60;90.60
25718;DHT22;13574;52.040;5.692;2022-08-07T07:14:23;22.30;89.00
25718;DHT22;13574;52.040;5.692;2022-08-07T07:16:55;23.40;86.80
25718;DHT22;13574;52.040;5.692;2022-08-07T07:19:29;25.20;83.50
25718;DHT22;13574;52.040;5.692;2022-08-07T07:21:57;26.70;77.30
25718;DHT22;13574;52.040;5.692;2022-08-07T07:24:23;28.80;73.60
25718;DHT22;13574;52.040;5.692;2022-08-07T07:26:50;30.40;69.50
25718;DHT22;13574;52.040;5.692;2022-08-07T07:29:21;32.60;67.00
25718;DHT22;13574;52.040;5.692;2022-08-07T07:31:52;33.50;63.80
25718;DHT22;13574;52.040;5.692;2022-08-07T07:34:26;36.00;60.20
25718;DHT22;13574;52.040;5.692;2022-08-07T07:36:53;37.40;57.70
25718;DHT22;13574;52.040;5.692;2022-08-07T07:39:20;39.20;55.80
25718;DHT22;13574;52.040;5.692;2022-08-07T07:41:48;40.60;53.70
25718;DHT22;13574;52.040;5.692;2022-08-07T07:44:15;41.30;51.60
25718;DHT22;13574;52.040;5.692;2022-08-07T07:46:43;39.10;52.00
25718;DHT22;13574;52.040;5.692;2022-08-07T07:49:11;40.40;51.70
25718;DHT22;13574;52.040;5.692;2022-08-07T07:51:40;40.80;51.50
25718;DHT22;13574;52.040;5.692;2022-08-07T07:54:08;42.00;50.10
25718;DHT22;13574;52.040;5.692;2022-08-07T07:56:36;43.20;49.40
25718;DHT22;13574;52.040;5.692;2022-08-07T07:59:04;44.10;48.10
25718;DHT22;13574;52.040;5.692;2022-08-07T08:01:32;44.50;47.00
25718;DHT22;13574;52.040;5.692;2022-08-07T08:04:02;44.90;47.70
25718;DHT22;13574;52.040;5.692;2022-08-07T08:06:30;45.20;46.40
25718;DHT22;13574;52.040;5.692;2022-08-07T08:08:57;45.80;46.70
25718;DHT22;13574;52.040;5.692;2022-08-07T08:11:25;46.60;46.10
25718;DHT22;13574;52.040;5.692;2022-08-07T08:13:50;46.00;45.30
25718;DHT22;13574;52.040;5.692;2022-08-07T08:16:19;45.60;46.00
25718;DHT22;13574;52.040;5.692;2022-08-07T08:18:47;45.80;46.40
25718;DHT22;13574;52.040;5.692;2022-08-07T08:21:14;46.00;45.80
25718;DHT22;13574;52.040;5.692;2022-08-07T08:24:04;46.50;46.00
25718;DHT22;13574;52.040;5.692;2022-08-07T08:26:51;47.20;44.70
25718;DHT22;13574;52.040;5.692;2022-08-07T08:29:41;47.40;44.30
25718;DHT22;13574;52.040;5.692;2022-08-07T08:32:10;47.80;44.80
25718;DHT22;13574;52.040;5.692;2022-08-07T08:34:37;48.40;43.90
25718;DHT22;13574;52.040;5.692;2022-08-07T08:37:05;48.80;43.10
25718;DHT22;13574;52.040;5.692;2022-08-07T08:39:33;48.90;43.30
25718;DHT22;13574;52.040;5.692;2022-08-07T08:42:03;47.90;42.60
25718;DHT22;13574;52.040;5.692;2022-08-07T08:45:04;47.90;43.60
25718;DHT22;13574;52.040;5.692;2022-08-07T08:50:26;49.10;43.20
25718;DHT22;13574;52.040;5.692;2022-08-07T08:53:01;49.60;43.00
25718;DHT22;13574;52.040;5.692;2022-08-07T08:55:50;49.10;43.00
25718;DHT22;13574;52.040;5.692;2022-08-07T09:01:02;49.90;42.10
25718;DHT22;13574;52.040;5.692;2022-08-07T09:06:43;50.10;41.90
25718;DHT22;13574;52.040;5.692;2022-08-07T09:11:54;50.90;40.40
25718;DHT22;13574;52.040;5.692;2022-08-07T09:14:33;50.90;41.10
25718;DHT22;13574;52.040;5.692;2022-08-07T09:23:08;46.90;41.30
25718;DHT22;13574;52.040;5.692;2022-08-07T09:28:41;43.40;44.20
25718;DHT22;13574;52.040;5.692;2022-08-07T09:34:19;44.80;44.70
25718;DHT22;13574;52.040;5.692;2022-08-07T09:36:57;45.10;44.70
25718;DHT22;13574;52.040;5.692;2022-08-07T09:39:34;45.90;43.80
25718;DHT22;13574;52.040;5.692;2022-08-07T09:47:32;41.10;46.20
25718;DHT22;13574;52.040;5.692;2022-08-07T09:50:03;39.00;48.40
25718;DHT22;13574;52.040;5.692;2022-08-07T09:52:52;37.70;49.30
25718;DHT22;13574;52.040;5.692;2022-08-07T09:55:31;36.30;50.60
25718;DHT22;13574;52.040;5.692;2022-08-07T10:04:22;31.70;56.80
25718;DHT22;13574;52.040;5.692;2022-08-07T10:09:45;30.90;58.10
25718;DHT22;13574;52.040;5.692;2022-08-07T10:15:45;29.90;60.80
25718;DHT22;13574;52.040;5.692;2022-08-07T10:21:39;30.20;59.20
25718;DHT22;13574;52.040;5.692;2022-08-07T10:38:17;30.10;60.50
25718;DHT22;13574;52.040;5.692;2022-08-07T10:40:51;30.10;60.20
25718;DHT22;13574;52.040;5.692;2022-08-07T10:43:26;30.30;60.40
25718;DHT22;13574;52.040;5.692;2022-08-07T10:45:59;29.60;60.00
25718;DHT22;13574;52.040;5.692;2022-08-07T10:51:28;29.70;60.60
25718;DHT22;13574;52.040;5.692;2022-08-07T10:54:14;29.10;60.50
25718;DHT22;13574;52.040;5.692;2022-08-07T11:10:41;32.10;57.20
25718;DHT22;13574;52.040;5.692;2022-08-07T11:15:57;33.70;55.70
25718;DHT22;13574;52.040;5.692;2022-08-07T11:18:37;33.70;56.30
25718;DHT22;13574;52.040;5.692;2022-08-07T11:21:12;33.30;55.70
25718;DHT22;13574;52.040;5.692;2022-08-07T11:23:56;32.90;55.50
25718;DHT22;13574;52.040;5.692;2022-08-07T11:26:40;32.20;56.30
25718;DHT22;13574;52.040;5.692;2022-08-07T11:32:17;33.80;55.70
25718;DHT22;13574;52.040;5.692;2022-08-07T11:34:56;36.10;53.80
25718;DHT22;13574;52.040;5.692;2022-08-07T11:37:55;36.90;52.10
25718;DHT22;13574;52.040;5.692;2022-08-07T11:43:54;36.20;51.70
25718;DHT22;13574;52.040;5.692;2022-08-07T11:49:43;35.80;52.00
25718;DHT22;13574;52.040;5.692;2022-08-07T11:52:54;35.50;53.00
25718;DHT22;13574;52.040;5.692;2022-08-07T12:07:03;31.50;57.90
25718;DHT22;13574;52.040;5.692;2022-08-07T12:09:34;31.20;56.90
25718;DHT22;13574;52.040;5.692;2022-08-07T12:12:07;31.00;57.70
25718;DHT22;13574;52.040;5.692;2022-08-07T12:14:48;30.70;58.80
25718;DHT22;13574;52.040;5.692;2022-08-07T12:17:18;30.50;58.30
25718;DHT22;13574;52.040;5.692;2022-08-07T12:20:44;30.00;59.40
25718;DHT22;13574;52.040;5.692;2022-08-07T12:28:30;29.00;59.20
25718;DHT22;13574;52.040;5.692;2022-08-07T12:31:12;29.00;59.20
25718;DHT22;13574;52.040;5.692;2022-08-07T12:33:40;29.00;58.20
25718;DHT22;13574;52.040;5.692;2022-08-07T12:36:06;28.90;58.10
25718;DHT22;13574;52.040;5.692;2022-08-07T12:38:37;28.70;59.90
25718;DHT22;13574;52.040;5.692;2022-08-07T12:41:04;28.80;59.90
25718;DHT22;13574;52.040;5.692;2022-08-07T12:43:33;28.80;58.70
25718;DHT22;13574;52.040;5.692;2022-08-07T12:48:59;28.90;59.90
25718;DHT22;13574;52.040;5.692;2022-08-07T12:51:36;28.90;59.20
25718;DHT22;13574;52.040;5.692;2022-08-07T12:54:14;28.80;60.20
25718;DHT22;13574;52.040;5.692;2022-08-07T12:56:44;28.60;60.50
25718;DHT22;13574;52.040;5.692;2022-08-07T12:59:18;28.30;61.00
25718;DHT22;13574;52.040;5.692;2022-08-07T13:04:50;28.10;59.70
25718;DHT22;13574;52.040;5.692;2022-08-07T13:10:37;28.40;60.60
25718;DHT22;13574;52.040;5.692;2022-08-07T13:20:46;28.60;60.80
25718;DHT22;13574;52.040;5.692;2022-08-07T13:25:58;28.50;60.80
25718;DHT22;13574;52.040;5.692;2022-08-07T13:28:34;28.60;61.70
25718;DHT22;13574;52.040;5.692;2022-08-07T13:31:11;28.70;60.60
25718;DHT22;13574;52.040;5.692;2022-08-07T13:33:50;28.50;59.60
25718;DHT22;13574;52.040;5.692;2022-08-07T13:36:40;28.40;60.50
25718;DHT22;13574;52.040;5.692;2022-08-07T13:40:05;28.30;60.10
25718;DHT22;13574;52.040;5.692;2022-08-07T13:42:12;28.30;60.80
25718;DHT22;13574;52.040;5.692;2022-08-07T13:44:41;28.00;61.40
25718;DHT22;13574;52.040;5.692;2022-08-07T13:47:09;28.00;60.30
25718;DHT22;13574;52.040;5.692;2022-08-07T13:49:41;28.00;61.20
25718;DHT22;13574;52.040;5.692;2022-08-07T13:52:09;28.00;60.40
25718;DHT22;13574;52.040;5.692;2022-08-07T13:54:37;28.10;60.50
25718;DHT22;13574;52.040;5.692;2022-08-07T13:57:06;28.00;60.20
25718;DHT22;13574;52.040;5.692;2022-08-07T13:59:42;27.70;60.50
25718;DHT22;13574;52.040;5.692;2022-08-07T14:02:11;27.80;61.10
25718;DHT22;13574;52.040;5.692;2022-08-07T14:04:52;27.90;60.60
25718;DHT22;13574;52.040;5.692;2022-08-07T14:07:25;27.90;60.20
25718;DHT22;13574;52.040;5.692;2022-08-07T14:09:55;28.00;60.40
25718;DHT22;13574;52.040;5.692;2022-08-07T14:12:53;27.90;61.20
25718;DHT22;13574;52.040;5.692;2022-08-07T14:15:43;28.10;62.10
25718;DHT22;13574;52.040;5.692;2022-08-07T14:18:19;28.10;62.60
25718;DHT22;13574;52.040;5.692;2022-08-07T14:20:47;27.90;63.80
25718;DHT22;13574;52.040;5.692;2022-08-07T14:23:22;27.90;64.40
25718;DHT22;13574;52.040;5.692;2022-08-07T14:25:57;28.10;64.10
25718;DHT22;13574;52.040;5.692;2022-08-07T14:28:25;28.10;64.10
25718;DHT22;13574;52.040;5.692;2022-08-07T14:30:53;28.20;64.40
25718;DHT22;13574;52.040;5.692;2022-08-07T14:33:20;28.30;64.10
25718;DHT22;13574;52.040;5.692;2022-08-07T14:35:48;28.30;64.40
25718;DHT22;13574;52.040;5.692;2022-08-07T14:38:22;28.30;64.80
25718;DHT22;13574;52.040;5.692;2022-08-07T14:40:57;28.30;64.70
25718;DHT22;13574;52.040;5.692;2022-08-07T14:43:27;28.30;65.50
25718;DHT22;13574;52.040;5.692;2022-08-07T14:45:57;28.30;64.90
25718;DHT22;13574;52.040;5.692;2022-08-07T14:48:30;28.10;65.10
25718;DHT22;13574;52.040;5.692;2022-08-07T14:51:02;27.90;65.00
25718;DHT22;13574;52.040;5.692;2022-08-07T14:53:39;27.80;65.90
25718;DHT22;13574;52.040;5.692;2022-08-07T14:56:09;27.80;65.90
25718;DHT22;13574;52.040;5.692;2022-08-07T14:58:39;27.60;65.90
25718;DHT22;13574;52.040;5.692;2022-08-07T15:01:08;27.70;65.40
25718;DHT22;13574;52.040;5.692;2022-08-07T15:03:35;27.70;65.80
25718;DHT22;13574;52.040;5.692;2022-08-07T15:06:01;27.80;65.30
25718;DHT22;13574;52.040;5.692;2022-08-07T15:08:47;27.90;64.10
25718;DHT22;13574;52.040;5.692;2022-08-07T15:11:19;27.90;64.70
25718;DHT22;13574;52.040;5.692;2022-08-07T15:14:07;27.60;64.40
25718;DHT22;13574;52.040;5.692;2022-08-07T15:16:40;27.70;64.70
25718;DHT22;13574;52.040;5.692;2022-08-07T15:19:10;27.70;64.60
25718;DHT22;13574;52.040;5.692;2022-08-07T15:21:41;27.80;63.70
25718;DHT22;13574;52.040;5.692;2022-08-07T15:24:13;28.00;64.00
25718;DHT22;13574;52.040;5.692;2022-08-07T15:26:54;28.00;63.10
25718;DHT22;13574;52.040;5.692;2022-08-07T15:29:21;27.90;63.70
25718;DHT22;13574;52.040;5.692;2022-08-07T15:31:50;27.80;63.00
25718;DHT22;13574;52.040;5.692;2022-08-07T15:34:17;27.90;62.70
25718;DHT22;13574;52.040;5.692;2022-08-07T15:36:44;27.10;63.40
25718;DHT22;13574;52.040;5.692;2022-08-07T15:39:11;26.70;64.40
25718;DHT22;13574;52.040;5.692;2022-08-07T15:42:02;26.90;65.10
25718;DHT22;13574;52.040;5.692;2022-08-07T15:44:30;26.90;64.40
25718;DHT22;13574;52.040;5.692;2022-08-07T15:47:07;26.90;64.90
25718;DHT22;13574;52.040;5.692;2022-08-07T15:49:35;27.10;64.60
25718;DHT22;13574;52.040;5.692;2022-08-07T15:52:01;27.00;64.60
25718;DHT22;13574;52.040;5.692;2022-08-07T15:54:36;27.20;66.00
25718;DHT22;13574;52.040;5.692;2022-08-07T15:57:06;27.50;64.60
25718;DHT22;13574;52.040;5.692;2022-08-07T15:59:34;27.60;64.70
25718;DHT22;13574;52.040;5.692;2022-08-07T16:02:04;27.60;64.10
25718;DHT22;13574;52.040;5.692;2022-08-07T16:04:33;27.50;63.30
25718;DHT22;13574;52.040;5.692;2022-08-07T16:07:03;27.60;63.40
25718;DHT22;13574;52.040;5.692;2022-08-07T16:09:49;27.60;63.80
25718;DHT22;13574;52.040;5.692;2022-08-07T16:34:37;27.70;63.60
25718;DHT22;13574;52.040;5.692;2022-08-07T16:43:20;27.70;64.50
25718;DHT22;13574;52.040;5.692;2022-08-07T16:45:58;27.50;64.40
25718;DHT22;13574;52.040;5.692;2022-08-07T16:51:38;27.50;64.10
25718;DHT22;13574;52.040;5.692;2022-08-07T17:00:11;27.60;64.90
25718;DHT22;13574;52.040;5.692;2022-08-07T17:02:58;27.50;64.60
25718;DHT22;13574;52.040;5.692;2022-08-07T17:05:40;27.30;64.90
25718;DHT22;13574;52.040;5.692;2022-08-07T17:08:06;27.20;65.50
25718;DHT22;13574;52.040;5.692;2022-08-07T17:10:51;27.20;65.70
25718;DHT22;13574;52.040;5.692;2022-08-07T17:18:32;27.00;66.60
25718;DHT22;13574;52.040;5.692;2022-08-07T17:21:01;27.20;66.90
25718;DHT22;13574;52.040;5.692;2022-08-07T17:23:39;27.00;67.30
25718;DHT22;13574;52.040;5.692;2022-08-07T17:34:26;26.80;68.50
25718;DHT22;13574;52.040;5.692;2022-08-07T17:36:58;26.70;68.50
25718;DHT22;13574;52.040;5.692;2022-08-07T17:40:00;26.80;69.10
25718;DHT22;13574;52.040;5.692;2022-08-07T17:45:10;26.70;69.40
25718;DHT22;13574;52.040;5.692;2022-08-07T17:47:57;26.60;69.40
25718;DHT22;13574;52.040;5.692;2022-08-07T17:53:37;26.20;70.20
25718;DHT22;13574;52.040;5.692;2022-08-07T17:56:15;26.30;70.90
25718;DHT22;13574;52.040;5.692;2022-08-07T18:01:32;26.10;71.00
25718;DHT22;13574;52.040;5.692;2022-08-07T18:07:11;26.10;71.60
25718;DHT22;13574;52.040;5.692;2022-08-07T18:09:43;26.10;72.00
25718;DHT22;13574;52.040;5.692;2022-08-07T18:12:30;25.80;72.70
25718;DHT22;13574;52.040;5.692;2022-08-07T18:22:31;25.60;73.60
25718;DHT22;13574;52.040;5.692;2022-08-07T18:24:58;25.50;74.00
25718;DHT22;13574;52.040;5.692;2022-08-07T18:30:10;25.60;74.10
25718;DHT22;13574;52.040;5.692;2022-08-07T18:41:51;25.90;74.20
25718;DHT22;13574;52.040;5.692;2022-08-07T18:49:23;25.90;74.40
25718;DHT22;13574;52.040;5.692;2022-08-07T19:00:07;25.90;75.90
25718;DHT22;13574;52.040;5.692;2022-08-07T19:03:04;25.80;75.30
25718;DHT22;13574;52.040;5.692;2022-08-07T19:05:36;25.80;75.40
25718;DHT22;13574;52.040;5.692;2022-08-07T19:08:18;25.80;75.30
25718;DHT22;13574;52.040;5.692;2022-08-07T19:10:54;25.70;75.60
25718;DHT22;13574;52.040;5.692;2022-08-07T19:16:43;25.60;76.10
25718;DHT22;13574;52.040;5.692;2022-08-07T19:24:50;25.40;76.80
25718;DHT22;13574;52.040;5.692;2022-08-07T19:27:20;25.40;77.20
25718;DHT22;13574;52.040;5.692;2022-08-07T19:30:00;25.40;77.30
25718;DHT22;13574;52.040;5.692;2022-08-07T19:32:27;25.30;77.10
25718;DHT22;13574;52.040;5.692;2022-08-07T19:35:04;25.30;77.50
25718;DHT22;13574;52.040;5.692;2022-08-07T19:37:31;25.30;77.40
25718;DHT22;13574;52.040;5.692;2022-08-07T19:40:00;25.20;77.50
25718;DHT22;13574;52.040;5.692;2022-08-07T19:42:29;25.20;78.00
25718;DHT22;13574;52.040;5.692;2022-08-07T19:44:58;25.20;78.00
25718;DHT22;13574;52.040;5.692;2022-08-07T19:47:29;25.10;78.00
25718;DHT22;13574;52.040;5.692;2022-08-07T19:49:59;25.00;78.10
25718;DHT22;13574;52.040;5.692;2022-08-07T19:52:28;25.00;78.50
25718;DHT22;13574;52.040;5.692;2022-08-07T19:54:55;25.00;78.60